createdAt,value
2022-08-08T00:00:53.657Z,99424.59
2022-08-08T00:02:57.033Z,99422.92
2022-08-08T00:06:14.428Z,99418.72
2022-08-08T00:09:33.209Z,99414.51
2022-08-08T00:12:56.503Z,99415.88
2022-08-08T00:16:11.157Z,99416.56
2022-08-08T00:19:29.650Z,99420.08
2022-08-08T00:22:49.843Z,99410.00
2022-08-08T00:26:06.109Z,99406.54
2022-08-08T00:29:44.985Z,99413.59
2022-08-08T00:32:46.810Z,99410.91
2022-08-08T00:36:05.523Z,99411.20
2022-08-08T00:41:08.113Z,99415.41
2022-08-08T00:43:11.846Z,99413.03
2022-08-08T00:47:02.076Z,99405.11
2022-08-08T00:51:07.087Z,99392.98
2022-08-08T00:55:18.941Z,99405.90
2022-08-08T00:59:43.989Z,99401.06
2022-08-08T01:04:00.940Z,99406.74
2022-08-08T01:07:55.476Z,99413.08
2022-08-08T01:11:39.415Z,99414.61
2022-08-08T01:15:56.845Z,99413.95
2022-08-08T01:20:03.306Z,99415.77
2022-08-08T01:24:03.326Z,99398.36
2022-08-08T01:27:33.082Z,99400.83
2022-08-08T01:32:13.074Z,99393.26
2022-08-08T01:35:44.529Z,99389.36
2022-08-08T01:39:35.091Z,99393.40
2022-08-08T01:42:52.127Z,99392.91
2022-08-08T01:46:13.993Z,99391.48
2022-08-08T01:49:37.742Z,99390.23
2022-08-08T01:54:05.295Z,99392.09
2022-08-08T01:56:29.294Z,99397.05
2022-08-08T02:00:02.151Z,99395.23
2022-08-08T02:03:57.744Z,99402.31
2022-08-08T02:07:06.078Z,99395.39
2022-08-08T02:10:45.141Z,99409.21
2022-08-08T02:13:59.835Z,99407.08
2022-08-08T02:17:23.291Z,99410.28
2022-08-08T02:21:01.900Z,99409.83
2022-08-08T02:24:04.425Z,99398.53
2022-08-08T02:27:21.701Z,99396.38
2022-08-08T02:30:49.998Z,99402.73
2022-08-08T02:34:09.117Z,99412.27
2022-08-08T02:37:53.469Z,99407.39
2022-08-08T02:40:50.087Z,99398.89
2022-08-08T02:44:57.271Z,99411.45
2022-08-08T02:48:40.901Z,99413.51
2022-08-08T02:52:39.166Z,99408.16
2022-08-08T02:56:36.783Z,99404.23
2022-08-08T03:00:33.679Z,99410.52
2022-08-08T03:05:03.240Z,99413.27
2022-08-08T03:08:52.310Z,99409.30
2022-08-08T03:13:01.680Z,99400.96
2022-08-08T03:16:43.346Z,99400.67
2022-08-08T03:20:08.306Z,99402.05
2022-08-08T03:23:22.413Z,99407.69
2022-08-08T03:26:43.141Z,99406.55
2022-08-08T03:30:02.879Z,99419.83
2022-08-08T03:33:55.699Z,99417.39
2022-08-08T03:36:44.724Z,99421.05
2022-08-08T03:40:00.511Z,99421.20
2022-08-08T03:43:15.647Z,99435.27
2022-08-08T03:46:32.615Z,99443.00
2022-08-08T03:50:00.845Z,99435.11
2022-08-08T03:53:00.025Z,99436.97
2022-08-08T03:56:32.277Z,99442.23
2022-08-08T03:59:27.223Z,99438.70
2022-08-08T04:02:47.838Z,99443.97
2022-08-08T04:05:54.546Z,99441.46
2022-08-08T04:09:11.857Z,99448.88
2022-08-08T04:12:25.689Z,99463.38
2022-08-08T04:15:39.299Z,99460.70
2022-08-08T04:18:54.162Z,99472.70
2022-08-08T04:22:07.729Z,99476.99
2022-08-08T04:25:23.310Z,99472.78
2022-08-08T04:28:40.534Z,99478.13
2022-08-08T04:31:59.854Z,99468.81
2022-08-08T04:35:05.363Z,99465.69
2022-08-08T04:38:21.303Z,99450.77
2022-08-08T04:41:35.804Z,99455.80
2022-08-08T04:44:49.320Z,99464.06
2022-08-08T04:48:01.429Z,99471.56
2022-08-08T04:51:17.503Z,99470.26
2022-08-08T04:54:39.590Z,99475.16
2022-08-08T04:57:43.371Z,99485.53
2022-08-08T05:00:55.419Z,99482.57
2022-08-08T05:04:12.646Z,99481.27
2022-08-08T05:07:24.149Z,99477.34
2022-08-08T05:10:38.315Z,99479.82
2022-08-08T05:13:58.605Z,99483.40
2022-08-08T05:17:09.014Z,99488.22
2022-08-08T05:20:19.758Z,99478.90
2022-08-08T05:23:32.728Z,99481.48
2022-08-08T05:26:48.747Z,99485.02
2022-08-08T05:30:00.795Z,99479.95
2022-08-08T05:33:14.390Z,99486.38
2022-08-08T05:36:30.713Z,99484.69
2022-08-08T05:39:43.976Z,99487.00
2022-08-08T05:43:01.782Z,99487.52
2022-08-08T05:46:13.523Z,99485.63
2022-08-08T05:49:28.424Z,99484.48
2022-08-08T05:52:44.046Z,99482.17
2022-08-08T05:56:08.014Z,99487.14
2022-08-08T05:59:15.617Z,99492.27
2022-08-08T06:02:46.823Z,99502.12
2022-08-08T06:06:06.643Z,99501.83
2022-08-08T06:09:58.894Z,99503.48
2022-08-08T06:12:37.741Z,99514.79
2022-08-08T06:15:54.905Z,99512.34
2022-08-08T06:19:25.718Z,99511.30
2022-08-08T06:22:42.126Z,99508.30
2022-08-08T06:26:43.124Z,99514.34
2022-08-08T06:29:48.526Z,99517.08
2022-08-08T06:32:34.024Z,99512.84
2022-08-08T06:36:04.621Z,99518.38
2022-08-08T06:39:10.898Z,99529.02
2022-08-08T06:42:26.491Z,99521.67
2022-08-08T06:45:42.732Z,99531.93
2022-08-08T06:48:56.135Z,99534.52
2022-08-08T06:52:09.458Z,99539.18
2022-08-08T06:55:23.555Z,99533.53
2022-08-08T06:58:36.893Z,99530.98
2022-08-08T07:02:26.814Z,99530.17
2022-08-08T07:05:20.046Z,99536.41
2022-08-08T07:08:37.472Z,99530.13
2022-08-08T07:11:53.099Z,99530.99
2022-08-08T07:15:15.486Z,99535.20
2022-08-08T07:18:40.505Z,99531.84
2022-08-08T07:22:05.411Z,99533.54
2022-08-08T07:25:17.363Z,99526.87
2022-08-08T07:28:31.552Z,99527.73
2022-08-08T07:31:46.687Z,99540.37
2022-08-08T07:35:02.579Z,99545.72
2022-08-08T07:38:25.636Z,99547.27
2022-08-08T07:42:03.869Z,99538.47
2022-08-08T07:44:53.393Z,99544.61
2022-08-08T07:48:08.726Z,99539.95
2022-08-08T07:51:23.684Z,99543.84
2022-08-08T07:54:53.062Z,99541.02
2022-08-08T07:58:13.626Z,99541.02
2022-08-08T08:02:32.927Z,99549.94
2022-08-08T08:04:49.375Z,99551.83
2022-08-08T08:08:07.795Z,99543.34
2022-08-08T08:11:38.256Z,99540.06
2022-08-08T08:14:48.820Z,99539.83
2022-08-08T08:18:07.153Z,99536.09
2022-08-08T08:21:35.536Z,99528.51
2022-08-08T08:24:37.712Z,99534.23
2022-08-08T08:27:50.339Z,99532.73
2022-08-08T08:31:07.976Z,99535.79
2022-08-08T08:34:21.244Z,99539.52
2022-08-08T08:37:47.957Z,99552.23
2022-08-08T08:40:51.446Z,99559.31
2022-08-08T08:44:14.088Z,99560.15
2022-08-08T08:47:21.164Z,99546.19
2022-08-08T08:50:35.333Z,99541.08
2022-08-08T08:54:00.833Z,99544.84
2022-08-08T08:57:15.782Z,99551.30
2022-08-08T09:04:32.176Z,99552.31
2022-08-08T09:07:39.266Z,99544.97
2022-08-08T09:14:32.197Z,99550.59
2022-08-08T09:17:55.687Z,99540.20
2022-08-08T09:22:01.964Z,99540.41
2022-08-08T09:24:17.678Z,99538.12
2022-08-08T09:27:55.787Z,99528.44
2022-08-08T09:34:31.588Z,99518.56
2022-08-08T09:37:39.485Z,99512.67
2022-08-08T09:40:43.981Z,99513.96
2022-08-08T09:44:34.029Z,99515.03
2022-08-08T09:48:03.950Z,99523.80
2022-08-08T09:51:15.816Z,99523.13
2022-08-08T09:54:37.637Z,99500.91
2022-08-08T09:57:55.510Z,99500.05
2022-08-08T10:01:02.020Z,99503.16
2022-08-08T10:04:35.430Z,99506.06
2022-08-08T10:07:36.038Z,99501.78
2022-08-08T10:10:51.375Z,99497.16
2022-08-08T10:14:07.440Z,99500.95
2022-08-08T10:17:57.432Z,99496.23
2022-08-08T10:20:51.090Z,99491.64
2022-08-08T10:24:00.242Z,99504.63
2022-08-08T10:27:13.698Z,99496.79
2022-08-08T10:31:00.553Z,99499.45
2022-08-08T10:34:19.827Z,99493.31
2022-08-08T10:37:00.377Z,99501.08
2022-08-08T10:40:23.333Z,99506.29
2022-08-08T10:43:46.298Z,99500.63
2022-08-08T10:46:58.211Z,99498.39
2022-08-08T10:50:16.076Z,99497.29
2022-08-08T10:53:56.438Z,99494.50
2022-08-08T10:56:48.085Z,99494.89
2022-08-08T11:00:03.462Z,99496.45
2022-08-08T11:03:37.147Z,99483.31
2022-08-08T11:06:42.046Z,99479.40
2022-08-08T11:09:55.296Z,99479.94
2022-08-08T11:13:28.773Z,99479.45
2022-08-08T11:16:33.460Z,99471.77
2022-08-08T11:19:46.771Z,99462.48
2022-08-08T11:23:05.248Z,99463.48
2022-08-08T11:26:28.014Z,99475.77
2022-08-08T11:29:51.018Z,99454.34
2022-08-08T11:32:55.509Z,99463.45
2022-08-08T11:36:07.872Z,99464.48
2022-08-08T11:39:21.838Z,99463.79
2022-08-08T11:42:37.910Z,99465.48
2022-08-08T11:46:09.842Z,99455.59
2022-08-08T11:49:14.742Z,99464.33
2022-08-08T11:52:29.765Z,99463.51
2022-08-08T11:55:55.414Z,99465.70
2022-08-08T11:59:16.794Z,99463.59
2022-08-08T12:02:45.558Z,99463.13
2022-08-08T12:05:59.360Z,99452.09
2022-08-08T12:09:17.101Z,99456.23
2022-08-08T12:12:36.498Z,99450.23
2022-08-08T12:19:37.573Z,99450.28
2022-08-08T12:22:56.981Z,99445.09
2022-08-08T12:26:27.969Z,99433.69
2022-08-08T12:29:44.837Z,99435.34
2022-08-08T12:32:57.673Z,99436.20
2022-08-08T12:36:20.294Z,99437.04
2022-08-08T12:39:59.827Z,99430.77
2022-08-08T12:42:55.848Z,99427.28
2022-08-08T12:46:25.186Z,99424.94
2022-08-08T12:49:44.995Z,99426.86
2022-08-08T12:53:07.545Z,99426.33
2022-08-08T12:56:24.112Z,99431.92
2022-08-08T13:00:03.814Z,99431.56
2022-08-08T13:03:04.877Z,99437.26
2022-08-08T13:06:22.840Z,99431.85
2022-08-08T13:10:05.995Z,99432.30
2022-08-08T13:13:37.543Z,99429.64
2022-08-08T13:16:51.101Z,99424.45
2022-08-08T13:20:08.619Z,99419.05
2022-08-08T13:23:36.996Z,99422.40
2022-08-08T13:26:41.027Z,99424.55
2022-08-08T13:30:01.523Z,99425.35
2022-08-08T13:33:18.323Z,99412.91
2022-08-08T13:36:29.645Z,99412.92
2022-08-08T13:39:44.399Z,99411.99
2022-08-08T13:43:17.073Z,99418.77
2022-08-08T13:46:30.812Z,99413.09
2022-08-08T13:50:38.335Z,99402.52
2022-08-08T13:53:24.448Z,99399.14
2022-08-08T13:56:27.196Z,99396.58
2022-08-08T13:59:48.067Z,99396.36
2022-08-08T14:03:26.401Z,99402.83
2022-08-08T14:06:32.787Z,99390.48
2022-08-08T14:10:04.551Z,99393.94
2022-08-08T14:12:59.642Z,99394.82
2022-08-08T14:16:16.403Z,99396.43
2022-08-08T14:19:56.274Z,99400.27
2022-08-08T14:22:54.669Z,99397.66
2022-08-08T14:26:10.973Z,99397.30
2022-08-08T14:29:30.778Z,99393.78
2022-08-08T14:32:52.721Z,99403.78
2022-08-08T14:36:11.460Z,99398.60
2022-08-08T14:39:48.617Z,99403.03
2022-08-08T14:42:55.304Z,99411.53
2022-08-08T14:46:11.127Z,99403.69
2022-08-08T14:49:31.891Z,99411.76
2022-08-08T14:52:50.018Z,99407.39
2022-08-08T14:56:04.414Z,99403.61
2022-08-08T14:59:44.628Z,99401.88
2022-08-08T15:02:33.136Z,99404.58
2022-08-08T15:05:53.570Z,99394.97
2022-08-08T15:09:00.954Z,99399.41
2022-08-08T15:12:14.084Z,99402.62
2022-08-08T15:16:02.125Z,99398.88
2022-08-08T15:18:44.259Z,99395.78
2022-08-08T15:21:56.221Z,99399.33
2022-08-08T15:25:17.819Z,99400.01
2022-08-08T15:28:34.146Z,99405.89
2022-08-08T15:32:03.955Z,99398.41
2022-08-08T15:34:56.381Z,99402.58
2022-08-08T15:38:13.371Z,99411.34
2022-08-08T15:41:37.031Z,99410.09
2022-08-08T15:44:38.652Z,99413.41
2022-08-08T15:48:15.237Z,99406.75
2022-08-08T15:51:09.079Z,99412.16
2022-08-08T15:54:38.389Z,99405.27
2022-08-08T15:57:40.131Z,99411.34
2022-08-08T16:00:50.926Z,99417.16
2022-08-08T16:04:03.105Z,99415.28
2022-08-08T16:07:15.186Z,99409.23
2022-08-08T16:13:11.361Z,99409.64
2022-08-08T16:13:45.219Z,99406.50
2022-08-08T16:16:57.454Z,99424.19
2022-08-08T16:20:13.391Z,99430.02
2022-08-08T16:23:24.112Z,99428.34
2022-08-08T16:26:42.300Z,99425.19
2022-08-08T16:30:13.607Z,99423.71
2022-08-08T16:33:09.421Z,99424.09
2022-08-08T16:36:27.982Z,99426.59
2022-08-08T16:40:02.236Z,99436.38
2022-08-08T16:42:51.803Z,99426.98
2022-08-08T16:46:43.399Z,99421.75
2022-08-08T16:49:17.715Z,99430.25
2022-08-08T16:55:03.228Z,99423.61
2022-08-08T16:55:55.870Z,99430.47
2022-08-08T16:58:59.654Z,99435.88
2022-08-08T17:02:37.853Z,99431.27
2022-08-08T17:05:44.798Z,99428.98
2022-08-08T17:08:46.516Z,99434.41
2022-08-08T17:12:02.379Z,99428.98
2022-08-08T17:15:17.529Z,99429.83
2022-08-08T17:18:30.217Z,99427.97
2022-08-08T17:21:47.049Z,99433.77
2022-08-08T17:25:00.428Z,99435.20
2022-08-08T17:28:14.263Z,99437.69
2022-08-08T17:31:45.689Z,99442.27
2022-08-08T17:35:14.517Z,99451.61
2022-08-08T17:37:55.381Z,99442.64
2022-08-08T17:41:07.998Z,99447.16
2022-08-08T17:44:19.974Z,99455.05
2022-08-08T17:47:37.501Z,99450.44
2022-08-08T17:50:49.193Z,99453.05
2022-08-08T17:54:04.060Z,99456.38
2022-08-08T17:57:15.211Z,99449.42
2022-08-08T18:00:30.639Z,99456.41
2022-08-08T18:03:42.063Z,99467.36
2022-08-08T18:06:56.771Z,99472.27
2022-08-08T18:10:14.685Z,99475.37
2022-08-08T18:13:27.216Z,99472.02
2022-08-08T18:16:43.448Z,99466.55
2022-08-08T18:20:44.514Z,99474.55
2022-08-08T18:23:12.514Z,99475.85
2022-08-08T18:26:25.912Z,99476.57
2022-08-08T18:29:40.393Z,99488.05
2022-08-08T18:32:54.098Z,99498.41
2022-08-08T18:36:18.660Z,99503.32
2022-08-08T18:39:27.421Z,99505.38
2022-08-08T18:42:37.435Z,99493.02
2022-08-08T18:46:53.529Z,99514.52
2022-08-08T18:49:05.146Z,99514.71
2022-08-08T18:52:22.869Z,99521.06
2022-08-08T18:55:32.571Z,99522.27
2022-08-08T18:58:44.498Z,99523.86
2022-08-08T19:02:24.931Z,99526.56
2022-08-08T19:05:12.413Z,99531.47
2022-08-08T19:08:29.328Z,99530.17
2022-08-08T19:11:46.670Z,99532.61
2022-08-08T19:14:55.037Z,99528.70
2022-08-08T19:18:32.308Z,99536.50
2022-08-08T19:21:29.097Z,99530.75
2022-08-08T19:24:49.078Z,99524.41
2022-08-08T19:27:55.963Z,99525.16
2022-08-08T19:31:09.321Z,99524.80
2022-08-08T19:34:36.307Z,99524.05
2022-08-08T19:37:42.606Z,99523.30
2022-08-08T19:40:48.362Z,99520.12
2022-08-08T19:44:12.487Z,99524.20
2022-08-08T19:47:23.940Z,99528.84
2022-08-08T19:50:33.099Z,99526.81
2022-08-08T19:53:53.192Z,99526.58
2022-08-08T19:56:59.531Z,99529.00
2022-08-08T20:00:30.783Z,99530.01
2022-08-08T20:04:02.570Z,99538.41
2022-08-08T20:06:46.656Z,99537.02
2022-08-08T20:10:00.159Z,99529.94
2022-08-08T20:14:13.309Z,99532.44
2022-08-08T20:16:29.640Z,99534.98
2022-08-08T20:19:42.153Z,99527.97
2022-08-08T20:22:56.411Z,99527.70
2022-08-08T20:26:08.992Z,99523.77
2022-08-08T20:29:22.866Z,99527.70
2022-08-08T20:32:37.082Z,99524.34
2022-08-08T20:35:56.751Z,99529.55
2022-08-08T20:39:03.870Z,99526.47
2022-08-08T20:42:15.759Z,99526.66
2022-08-08T20:45:54.382Z,99526.01
2022-08-08T20:48:42.197Z,99537.17
2022-08-08T20:51:54.110Z,99526.27
2022-08-08T20:55:07.681Z,99528.97
2022-08-08T20:58:23.302Z,99528.97
2022-08-08T21:02:06.822Z,99529.62
2022-08-08T21:04:50.287Z,99524.34
2022-08-08T21:08:36.914Z,99528.23
2022-08-08T21:11:17.129Z,99532.03
2022-08-08T21:14:36.410Z,99538.03
2022-08-08T21:17:55.976Z,99529.41
2022-08-08T21:21:09.824Z,99535.87
2022-08-08T21:24:30.268Z,99529.04
2022-08-08T21:28:14.600Z,99532.73
2022-08-08T21:31:05.907Z,99536.20
2022-08-08T21:34:18.557Z,99540.98
2022-08-08T21:37:53.976Z,99534.75
2022-08-08T21:40:55.860Z,99538.95
2022-08-08T21:43:59.389Z,99539.84
2022-08-08T21:48:08.148Z,99545.70
2022-08-08T21:50:27.370Z,99547.08
2022-08-08T21:54:36.229Z,99548.48
2022-08-08T21:56:54.524Z,99551.59
2022-08-08T22:03:49.955Z,99547.91
2022-08-08T22:07:09.614Z,99547.09
2022-08-08T22:10:32.674Z,99547.20
2022-08-08T22:13:51.610Z,99547.87
2022-08-08T22:17:05.683Z,99546.20
2022-08-08T22:20:29.075Z,99549.60
2022-08-08T22:23:52.079Z,99550.97
2022-08-08T22:27:04.428Z,99546.77
2022-08-08T22:30:29.794Z,99552.81
2022-08-08T22:34:13.772Z,99552.66
2022-08-08T22:37:03.271Z,99549.42
2022-08-08T22:40:18.510Z,99552.30
2022-08-08T22:47:34.536Z,99551.88
2022-08-08T22:50:31.884Z,99557.95
2022-08-08T22:54:32.832Z,99559.80
2022-08-08T22:56:59.271Z,99557.80
2022-08-08T23:00:15.717Z,99561.84
2022-08-08T23:03:34.413Z,99555.31
2022-08-08T23:06:42.733Z,99549.60
2022-08-08T23:09:58.661Z,99556.84
2022-08-08T23:13:10.071Z,99565.23
2022-08-08T23:16:38.995Z,99573.16
2022-08-08T23:19:36.061Z,99561.86
2022-08-08T23:22:57.351Z,99564.22
2022-08-08T23:26:09.035Z,99564.89
2022-08-08T23:29:22.636Z,99564.53
2022-08-08T23:32:34.595Z,99565.73
2022-08-08T23:36:06.523Z,99560.84
2022-08-08T23:38:59.945Z,99551.77
2022-08-08T23:42:14.152Z,99568.73
2022-08-08T23:49:00.668Z,99558.82
2022-08-08T23:49:05.326Z,99560.48
2022-08-08T23:52:04.710Z,99562.36
2022-08-08T23:55:22.279Z,99558.47
2022-08-08T23:58:37.590Z,99548.22
